createdAt,value
2022-09-27T00:01:02.121Z,97918.19
2022-09-27T00:03:29.849Z,97912.37
2022-09-27T00:06:05.426Z,97912.91
2022-09-27T00:08:32.982Z,97910.09
2022-09-27T00:11:09.134Z,97908.88
2022-09-27T00:13:36.541Z,97907.25
2022-09-27T00:16:07.082Z,97912.03
2022-09-27T00:18:34.618Z,97899.34
2022-09-27T00:21:06.369Z,97909.12
2022-09-27T00:23:34.146Z,97902.84
2022-09-27T00:26:01.728Z,97899.75
2022-09-27T00:28:28.862Z,97899.75
2022-09-27T00:30:56.260Z,97899.53
2022-09-27T00:33:23.762Z,97895.69
2022-09-27T00:35:50.882Z,97898.91
2022-09-27T00:38:18.176Z,97898.22
2022-09-27T00:40:46.522Z,97887.66
2022-09-27T00:43:15.411Z,97889.03
2022-09-27T00:45:42.797Z,97879.28
2022-09-27T00:48:10.378Z,97876.25
2022-09-27T00:50:42.628Z,97870.41
2022-09-27T00:53:11.194Z,97871.31
2022-09-27T00:55:40.121Z,97876.59
2022-09-27T00:58:08.187Z,97874.34
2022-09-27T01:00:36.353Z,97874.22
2022-09-27T01:03:03.805Z,97880.19
2022-09-27T01:05:31.001Z,97881.56
2022-09-27T01:08:00.824Z,97867.13
2022-09-27T01:10:32.354Z,97869.72
2022-09-27T01:13:02.822Z,97865.88
2022-09-27T01:15:59.119Z,97870.16
2022-09-27T01:18:31.205Z,97864.16
2022-09-27T01:21:10.569Z,97866.91
2022-09-27T01:23:57.912Z,97861.97
2022-09-27T01:26:31.398Z,97856.81
2022-09-27T01:29:05.506Z,97850.53
2022-09-27T01:31:34.490Z,97847.03
2022-09-27T01:34:04.482Z,97850.38
2022-09-27T01:36:40.134Z,97840.22
2022-09-27T01:39:10.772Z,97840.38
2022-09-27T01:41:48.598Z,97837.75
2022-09-27T01:44:28.867Z,97839.78
2022-09-27T01:47:04.833Z,97831.94
2022-09-27T01:49:51.205Z,97822.50
2022-09-27T01:52:19.425Z,97814.75
2022-09-27T01:54:47.697Z,97808.81
2022-09-27T01:57:17.362Z,97810.50
2022-09-27T01:59:46.945Z,97797.03
2022-09-27T02:02:15.207Z,97800.44
2022-09-27T02:04:45.817Z,97803.88
2022-09-27T02:07:42.950Z,97802.69
2022-09-27T02:10:16.933Z,97799.91
2022-09-27T02:12:57.538Z,97798.00
2022-09-27T02:15:25.006Z,97799.78
2022-09-27T02:18:13.967Z,97804.22
2022-09-27T02:20:42.264Z,97794.59
2022-09-27T02:23:41.989Z,97800.44
2022-09-27T02:26:14.938Z,97800.81
2022-09-27T02:29:00.055Z,97794.06
2022-09-27T02:31:31.843Z,97791.59
2022-09-27T02:34:01.159Z,97793.13
2022-09-27T02:36:28.756Z,97781.72
2022-09-27T02:38:56.783Z,97781.19
2022-09-27T02:41:24.313Z,97786.25
2022-09-27T02:43:52.934Z,97783.09
2022-09-27T02:46:24.022Z,97772.00
2022-09-27T02:48:51.569Z,97777.53
2022-09-27T02:51:25.219Z,97779.25
2022-09-27T02:54:02.666Z,97778.31
2022-09-27T02:56:42.566Z,97772.00
2022-09-27T02:59:21.702Z,97764.09
2022-09-27T03:01:52.443Z,97765.78
2022-09-27T03:04:23.706Z,97773.38
2022-09-27T03:06:51.290Z,97768.00
2022-09-27T03:09:19.602Z,97756.84
2022-09-27T03:11:47.057Z,97764.44
2022-09-27T03:14:14.223Z,97769.78
2022-09-27T03:16:42.983Z,97765.72
2022-09-27T03:19:11.227Z,97760.59
2022-09-27T03:21:40.466Z,97756.28
2022-09-27T03:24:09.085Z,97757.28
2022-09-27T03:26:36.502Z,97753.69
2022-09-27T03:29:03.814Z,97759.06
2022-09-27T03:31:31.244Z,97759.41
2022-09-27T03:34:04.443Z,97751.75
2022-09-27T03:36:31.590Z,97749.22
2022-09-27T03:38:59.112Z,97754.38
2022-09-27T03:41:26.274Z,97752.00
2022-09-27T03:43:53.416Z,97749.53
2022-09-27T03:46:20.872Z,97744.63
2022-09-27T03:48:48.127Z,97749.88
2022-09-27T03:51:15.632Z,97742.81
2022-09-27T03:53:43.373Z,97742.63
2022-09-27T03:56:11.356Z,97744.09
2022-09-27T03:58:38.958Z,97748.59
2022-09-27T04:01:06.611Z,97750.91
2022-09-27T04:03:36.105Z,97751.31
2022-09-27T04:06:07.501Z,97747.47
2022-09-27T04:08:35.212Z,97750.91
2022-09-27T04:11:03.545Z,97742.81
2022-09-27T04:13:31.095Z,97739.84
2022-09-27T04:15:58.501Z,97748.16
2022-09-27T04:18:29.628Z,97742.47
2022-09-27T04:20:59.594Z,97741.72
2022-09-27T04:23:30.173Z,97736.91
2022-09-27T04:25:57.688Z,97741.84
2022-09-27T04:28:29.856Z,97731.31
2022-09-27T04:30:57.044Z,97738.22
2022-09-27T04:33:25.629Z,97727.78
2022-09-27T04:36:15.135Z,97730.31
2022-09-27T04:38:42.477Z,97724.13
2022-09-27T04:41:10.517Z,97742.16
2022-09-27T04:43:39.021Z,97738.00
2022-09-27T04:46:06.521Z,97724.66
2022-09-27T04:48:34.569Z,97727.34
2022-09-27T04:51:02.718Z,97725.16
2022-09-27T04:53:30.124Z,97732.59
2022-09-27T04:55:58.376Z,97733.84
2022-09-27T04:58:25.572Z,97735.88
2022-09-27T05:00:53.220Z,97726.12
2022-09-27T05:03:21.839Z,97716.56
2022-09-27T05:05:49.597Z,97720.16
2022-09-27T05:08:16.725Z,97720.13
2022-09-27T05:10:44.418Z,97717.94
2022-09-27T05:13:11.579Z,97709.56
2022-09-27T05:15:39.618Z,97706.44
2022-09-27T05:18:10.862Z,97708.31
2022-09-27T05:20:40.682Z,97703.84
2022-09-27T05:23:08.150Z,97701.28
2022-09-27T05:25:36.385Z,97694.44
2022-09-27T05:28:03.617Z,97686.34
2022-09-27T05:30:30.856Z,97680.09
2022-09-27T05:32:59.125Z,97686.44
2022-09-27T05:35:35.823Z,97690.59
2022-09-27T05:38:03.569Z,97684.09
2022-09-27T05:40:46.612Z,97686.56
2022-09-27T05:43:14.293Z,97675.47
2022-09-27T05:45:41.882Z,97685.31
2022-09-27T05:48:09.181Z,97690.94
2022-09-27T05:50:39.287Z,97683.84
2022-09-27T05:53:06.605Z,97690.31
2022-09-27T05:55:33.822Z,97682.75
2022-09-27T05:58:02.161Z,97687.56
2022-09-27T06:00:29.948Z,97681.09
2022-09-27T06:03:01.591Z,97679.62
2022-09-27T06:05:34.895Z,97683.31
2022-09-27T06:08:05.130Z,97684.28
2022-09-27T06:10:32.943Z,97686.84
2022-09-27T06:13:02.449Z,97677.97
2022-09-27T06:15:31.540Z,97680.34
2022-09-27T06:18:02.474Z,97683.22
2022-09-27T06:20:29.961Z,97692.25
2022-09-27T06:23:03.597Z,97694.38
2022-09-27T06:25:31.049Z,97688.00
2022-09-27T06:27:58.606Z,97700.03
2022-09-27T06:30:27.207Z,97699.13
2022-09-27T06:32:58.455Z,97690.91
2022-09-27T06:35:26.758Z,97680.53
2022-09-27T06:37:53.931Z,97684.19
2022-09-27T06:40:22.457Z,97679.88
2022-09-27T06:42:50.408Z,97670.69
2022-09-27T06:45:17.689Z,97665.22
2022-09-27T06:47:47.480Z,97666.53
2022-09-27T06:50:15.716Z,97669.53
2022-09-27T06:52:47.808Z,97678.53
2022-09-27T06:55:15.359Z,97686.47
2022-09-27T06:58:01.708Z,97692.75
2022-09-27T07:00:29.239Z,97698.00
2022-09-27T07:03:01.069Z,97697.50
2022-09-27T07:05:31.817Z,97703.81
2022-09-27T07:07:59.118Z,97706.81
2022-09-27T07:10:27.774Z,97687.41
2022-09-27T07:12:55.955Z,97692.31
2022-09-27T07:15:24.833Z,97695.44
2022-09-27T07:17:58.558Z,97695.50
2022-09-27T07:20:26.952Z,97689.84
2022-09-27T07:22:54.094Z,97697.13
2022-09-27T07:25:21.506Z,97695.38
2022-09-27T07:27:49.804Z,97688.47
2022-09-27T07:30:17.138Z,97686.75
2022-09-27T07:32:44.339Z,97695.84
2022-09-27T07:35:12.449Z,97700.66
2022-09-27T07:37:39.587Z,97696.44
2022-09-27T07:40:17.163Z,97680.03
2022-09-27T07:42:44.676Z,97678.69
2022-09-27T07:45:12.210Z,97671.56
2022-09-27T07:47:40.838Z,97680.38
2022-09-27T07:50:09.669Z,97687.19
2022-09-27T07:52:41.677Z,97691.16
2022-09-27T07:55:10.732Z,97688.94
2022-09-27T07:57:38.851Z,97684.66
2022-09-27T08:00:07.387Z,97690.19
2022-09-27T08:02:41.034Z,97691.00
2022-09-27T08:05:09.347Z,97692.25
2022-09-27T08:07:37.215Z,97669.44
2022-09-27T08:10:06.817Z,97672.22
2022-09-27T08:12:34.765Z,97694.16
2022-09-27T08:15:02.863Z,97689.47
2022-09-27T08:17:30.373Z,97706.09
2022-09-27T08:19:58.351Z,97702.69
2022-09-27T08:22:25.673Z,97708.47
2022-09-27T08:24:55.972Z,97703.94
2022-09-27T08:27:23.411Z,97684.87
2022-09-27T08:29:50.824Z,97693.44
2022-09-27T08:32:22.861Z,97690.31
2022-09-27T08:34:51.043Z,97683.69
2022-09-27T08:37:20.632Z,97685.97
2022-09-27T08:39:48.495Z,97689.78
2022-09-27T08:42:17.597Z,97696.25
2022-09-27T08:44:44.961Z,97686.16
2022-09-27T08:47:15.088Z,97689.50
2022-09-27T08:49:44.658Z,97683.25
2022-09-27T08:52:22.648Z,97680.19
2022-09-27T08:54:50.261Z,97685.78
2022-09-27T08:57:17.898Z,97669.84
2022-09-27T09:00:11.783Z,97676.47
2022-09-27T09:02:39.258Z,97673.06
2022-09-27T09:05:10.828Z,97681.41
2022-09-27T09:07:53.379Z,97672.31
2022-09-27T09:10:50.043Z,97669.09
2022-09-27T09:13:24.891Z,97670.19
2022-09-27T09:15:55.590Z,97651.97
2022-09-27T09:18:41.736Z,97652.81
2022-09-27T09:21:09.139Z,97652.22
2022-09-27T09:24:08.903Z,97654.53
2022-09-27T09:26:43.027Z,97653.75
2022-09-27T09:29:14.334Z,97645.44
2022-09-27T09:31:47.323Z,97646.03
2022-09-27T09:34:19.736Z,97643.91
2022-09-27T09:36:54.133Z,97637.63
2022-09-27T09:39:24.518Z,97641.13
2022-09-27T09:41:57.951Z,97650.03
2022-09-27T09:44:26.726Z,97641.13
2022-09-27T09:46:55.756Z,97644.50
2022-09-27T09:49:29.754Z,97625.78
2022-09-27T09:52:06.572Z,97631.91
2022-09-27T09:54:37.996Z,97623.41
2022-09-27T09:57:09.010Z,97633.06
2022-09-27T09:59:38.660Z,97635.28
2022-09-27T10:02:25.289Z,97631.88
2022-09-27T10:04:53.737Z,97629.87
2022-09-27T10:07:22.591Z,97622.56
2022-09-27T10:09:50.319Z,97625.53
2022-09-27T10:12:20.187Z,97620.66
2022-09-27T10:14:48.297Z,97609.72
2022-09-27T10:17:17.919Z,97626.88
2022-09-27T10:19:48.522Z,97614.31
2022-09-27T10:22:19.516Z,97602.59
2022-09-27T10:24:55.060Z,97603.38
2022-09-27T10:27:24.087Z,97603.84
2022-09-27T10:30:00.838Z,97591.81
2022-09-27T10:32:31.468Z,97593.06
2022-09-27T10:35:23.525Z,97596.03
2022-09-27T10:37:52.619Z,97595.34
2022-09-27T10:40:28.967Z,97594.16
2022-09-27T10:42:56.854Z,97600.66
2022-09-27T10:45:29.611Z,97587.34
2022-09-27T10:47:57.174Z,97589.66
2022-09-27T10:50:48.965Z,97591.16
2022-09-27T10:53:15.837Z,97590.75
2022-09-27T10:55:43.853Z,97585.25
2022-09-27T10:58:31.674Z,97583.03
2022-09-27T11:01:03.651Z,97573.03
2022-09-27T11:03:33.610Z,97576.75
2022-09-27T11:06:01.342Z,97573.94
2022-09-27T11:08:33.158Z,97564.59
2022-09-27T11:11:01.988Z,97564.19
2022-09-27T11:13:32.801Z,97555.72
2022-09-27T11:16:20.460Z,97562.87
2022-09-27T11:19:20.011Z,97548.16
2022-09-27T11:21:47.442Z,97551.41
2022-09-27T11:24:24.634Z,97546.19
2022-09-27T11:26:52.374Z,97541.41
2022-09-27T11:29:22.289Z,97542.47
2022-09-27T11:32:06.333Z,97536.03
2022-09-27T11:34:34.101Z,97521.38
2022-09-27T11:37:21.680Z,97526.41
2022-09-27T11:39:54.369Z,97531.00
2022-09-27T11:42:33.241Z,97521.44
2022-09-27T11:48:15.809Z,97518.34
2022-09-27T11:50:49.843Z,97504.84
2022-09-27T11:53:17.169Z,97513.44
2022-09-27T11:56:05.654Z,97502.09
2022-09-27T11:58:59.161Z,97501.53
2022-09-27T12:01:42.628Z,97499.09
2022-09-27T12:04:10.258Z,97496.59
2022-09-27T12:06:50.096Z,97486.28
2022-09-27T12:09:20.031Z,97487.31
2022-09-27T12:11:51.871Z,97480.34
2022-09-27T12:14:27.044Z,97485.91
2022-09-27T12:16:54.614Z,97485.44
2022-09-27T12:19:23.523Z,97476.41
2022-09-27T12:21:50.930Z,97483.47
2022-09-27T12:24:19.385Z,97485.69
2022-09-27T12:26:47.281Z,97491.50
2022-09-27T12:29:36.299Z,97488.09
2022-09-27T12:32:22.959Z,97482.62
2022-09-27T12:35:00.148Z,97473.38
2022-09-27T12:37:29.160Z,97458.88
2022-09-27T12:40:00.939Z,97464.28
2022-09-27T12:42:29.199Z,97457.50
2022-09-27T12:44:57.746Z,97448.44
2022-09-27T12:47:30.980Z,97452.63
2022-09-27T12:50:04.586Z,97447.75
2022-09-27T12:52:32.279Z,97447.09
2022-09-27T12:55:16.271Z,97432.63
2022-09-27T12:57:50.511Z,97448.84
2022-09-27T13:00:32.466Z,97439.53
2022-09-27T13:03:16.038Z,97434.47
2022-09-27T13:05:47.045Z,97434.31
2022-09-27T13:08:33.262Z,97434.38
2022-09-27T13:11:11.434Z,97431.53
2022-09-27T13:13:39.818Z,97426.59
2022-09-27T13:16:07.948Z,97420.69
2022-09-27T13:18:35.515Z,97420.81
2022-09-27T13:21:03.904Z,97421.28
2022-09-27T13:23:33.158Z,97416.22
2022-09-27T13:26:03.041Z,97425.03
2022-09-27T13:28:31.860Z,97417.03
2022-09-27T13:31:00.315Z,97418.91
2022-09-27T13:33:45.302Z,97416.75
2022-09-27T13:36:16.277Z,97414.34
2022-09-27T13:38:53.453Z,97419.75
2022-09-27T13:41:21.309Z,97418.69
2022-09-27T13:44:05.126Z,97415.31
2022-09-27T13:46:33.864Z,97402.37
2022-09-27T13:49:04.484Z,97407.53
2022-09-27T13:51:36.718Z,97405.84
2022-09-27T13:54:10.057Z,97417.19
2022-09-27T13:56:46.673Z,97440.06
2022-09-27T13:59:21.480Z,97442.31
2022-09-27T14:01:50.549Z,97462.47
2022-09-27T14:04:25.033Z,97456.28
2022-09-27T14:06:53.491Z,97458.41
2022-09-27T14:09:21.892Z,97462.06
2022-09-27T14:11:52.593Z,97468.19
2022-09-27T14:14:22.293Z,97464.25
2022-09-27T14:16:50.225Z,97477.75
2022-09-27T14:19:18.646Z,97478.72
2022-09-27T14:21:46.152Z,97488.38
2022-09-27T14:24:37.817Z,97491.00
2022-09-27T14:27:05.532Z,97490.47
2022-09-27T14:29:34.483Z,97489.50
2022-09-27T14:32:06.248Z,97498.50
2022-09-27T14:34:34.099Z,97489.03
2022-09-27T14:37:20.440Z,97495.66
2022-09-27T14:39:59.382Z,97496.47
2022-09-27T14:42:29.082Z,97502.78
2022-09-27T14:44:59.021Z,97499.00
2022-09-27T14:47:27.704Z,97496.34
2022-09-27T14:49:56.783Z,97504.03
2022-09-27T14:52:30.001Z,97499.31
2022-09-27T14:55:00.274Z,97498.47
2022-09-27T14:57:28.406Z,97499.09
2022-09-27T15:00:00.142Z,97501.59
2022-09-27T15:02:28.190Z,97490.38
2022-09-27T15:04:55.411Z,97493.47
2022-09-27T15:07:23.660Z,97502.66
2022-09-27T15:09:51.730Z,97506.88
2022-09-27T15:12:23.283Z,97511.53
2022-09-27T15:14:54.119Z,97504.72
2022-09-27T15:17:21.678Z,97505.91
2022-09-27T15:20:18.722Z,97509.84
2022-09-27T15:22:46.837Z,97508.72
2022-09-27T15:25:23.544Z,97511.28
2022-09-27T15:27:52.505Z,97518.81
2022-09-27T15:30:21.611Z,97513.12
2022-09-27T15:32:49.866Z,97518.91
2022-09-27T15:35:20.453Z,97516.37
2022-09-27T15:37:47.588Z,97529.72
2022-09-27T15:40:21.065Z,97534.81
2022-09-27T15:42:55.232Z,97535.22
2022-09-27T15:45:28.696Z,97535.06
2022-09-27T15:47:56.109Z,97538.13
2022-09-27T15:50:26.348Z,97544.31
2022-09-27T15:52:55.717Z,97543.03
2022-09-27T15:55:25.344Z,97543.09
2022-09-27T15:58:06.447Z,97553.72
2022-09-27T16:00:35.062Z,97558.38
2022-09-27T16:03:02.514Z,97560.16
2022-09-27T16:05:30.314Z,97559.12
2022-09-27T16:07:58.891Z,97559.19
2022-09-27T16:10:27.437Z,97563.69
2022-09-27T16:12:54.582Z,97544.94
2022-09-27T16:15:21.706Z,97551.25
2022-09-27T16:17:49.074Z,97556.59
2022-09-27T16:20:20.245Z,97547.66
2022-09-27T16:22:47.380Z,97553.84
2022-09-27T16:25:14.962Z,97546.72
2022-09-27T16:27:42.595Z,97537.38
2022-09-27T16:30:09.988Z,97542.53
2022-09-27T16:32:44.136Z,97561.41
2022-09-27T16:35:11.852Z,97565.97
2022-09-27T16:37:39.331Z,97570.34
2022-09-27T16:40:08.317Z,97569.87
2022-09-27T16:42:35.710Z,97572.19
2022-09-27T16:45:08.909Z,97575.91
2022-09-27T16:47:37.754Z,97573.03
2022-09-27T16:50:23.898Z,97577.81
2022-09-27T16:52:52.492Z,97585.22
2022-09-27T16:55:21.160Z,97590.28
2022-09-27T16:57:48.896Z,97573.78
2022-09-27T17:00:16.616Z,97594.63
2022-09-27T17:02:47.054Z,97590.13
2022-09-27T17:05:14.722Z,97598.13
2022-09-27T17:07:41.847Z,97604.00
2022-09-27T17:10:09.431Z,97609.09
2022-09-27T17:12:36.600Z,97606.97
2022-09-27T17:15:03.865Z,97606.63
2022-09-27T17:17:31.293Z,97608.81
2022-09-27T17:19:58.433Z,97604.16
2022-09-27T17:22:25.559Z,97614.66
2022-09-27T17:24:52.987Z,97621.59
2022-09-27T17:27:25.190Z,97616.59
2022-09-27T17:29:53.538Z,97622.44
2022-09-27T17:32:24.257Z,97609.66
2022-09-27T17:34:51.789Z,97620.03
2022-09-27T17:37:19.221Z,97613.00
2022-09-27T17:39:46.359Z,97619.28
2022-09-27T17:42:13.476Z,97622.53
2022-09-27T17:44:40.920Z,97621.81
2022-09-27T17:47:26.562Z,97616.59
2022-09-27T17:50:12.489Z,97618.00
2022-09-27T17:52:39.769Z,97615.91
2022-09-27T17:55:07.428Z,97619.69
2022-09-27T17:57:34.709Z,97623.37
2022-09-27T18:00:01.855Z,97610.47
2022-09-27T18:02:29.361Z,97614.28
2022-09-27T18:04:56.847Z,97615.72
2022-09-27T18:07:24.344Z,97629.84
2022-09-27T18:09:51.709Z,97629.53
2022-09-27T18:12:19.790Z,97631.13
2022-09-27T18:14:46.905Z,97643.25
2022-09-27T18:17:14.303Z,97648.50
2022-09-27T18:19:42.087Z,97653.97
2022-09-27T18:22:09.305Z,97656.16
2022-09-27T18:24:39.274Z,97652.91
2022-09-27T18:27:07.382Z,97661.34
2022-09-27T18:29:34.879Z,97665.75
2022-09-27T18:32:02.243Z,97660.75
2022-09-27T18:34:29.587Z,97666.97
2022-09-27T18:37:06.225Z,97667.56
2022-09-27T18:39:33.814Z,97665.22
2022-09-27T18:42:01.186Z,97662.81
2022-09-27T18:44:33.284Z,97668.44
2022-09-27T18:47:00.903Z,97677.28
2022-09-27T18:49:33.668Z,97675.81
2022-09-27T18:52:02.983Z,97682.69
2022-09-27T18:54:30.551Z,97691.22
2022-09-27T18:56:58.108Z,97700.31
2022-09-27T18:59:26.453Z,97701.91
2022-09-27T19:01:54.250Z,97698.44
2022-09-27T19:04:26.161Z,97704.31
2022-09-27T19:06:54.792Z,97709.59
2022-09-27T19:09:22.107Z,97706.50
2022-09-27T19:11:49.386Z,97710.97
2022-09-27T19:14:18.129Z,97710.25
2022-09-27T19:16:47.164Z,97707.72
2022-09-27T19:19:18.073Z,97712.38
2022-09-27T19:21:46.116Z,97705.50
2022-09-27T19:24:14.307Z,97717.34
2022-09-27T19:26:41.780Z,97720.94
2022-09-27T19:29:09.417Z,97715.50
2022-09-27T19:31:37.158Z,97715.59
2022-09-27T19:34:07.244Z,97712.59
2022-09-27T19:36:34.922Z,97721.37
2022-09-27T19:39:02.347Z,97714.37
2022-09-27T19:41:30.031Z,97702.06
2022-09-27T19:43:57.668Z,97698.69
2022-09-27T19:46:25.232Z,97695.53
2022-09-27T19:48:52.590Z,97691.34
2022-09-27T19:51:24.192Z,97696.88
2022-09-27T19:53:51.624Z,97696.53
2022-09-27T19:56:19.697Z,97701.72
2022-09-27T19:58:47.595Z,97705.63
2022-09-27T20:01:23.014Z,97703.94
2022-09-27T20:03:51.465Z,97708.19
2022-09-27T20:06:19.617Z,97716.41
2022-09-27T20:08:48.033Z,97718.41
2022-09-27T20:11:19.279Z,97724.16
2022-09-27T20:13:47.115Z,97720.50
2022-09-27T20:16:15.436Z,97728.78
2022-09-27T20:19:03.453Z,97731.44
2022-09-27T20:21:32.578Z,97725.75
2022-09-27T20:24:00.844Z,97729.44
2022-09-27T20:26:28.598Z,97732.22
2022-09-27T20:28:59.369Z,97732.44
2022-09-27T20:31:27.831Z,97729.41
2022-09-27T20:33:55.016Z,97723.22
2022-09-27T20:36:22.271Z,97733.69
2022-09-27T20:38:50.669Z,97735.53
2022-09-27T20:41:18.269Z,97742.50
2022-09-27T20:43:45.575Z,97732.06
2022-09-27T20:46:14.142Z,97736.38
2022-09-27T20:48:41.486Z,97727.97
2022-09-27T20:51:09.995Z,97722.00
2022-09-27T20:53:37.423Z,97725.97
2022-09-27T20:56:04.734Z,97726.81
2022-09-27T20:58:32.055Z,97724.09
2022-09-27T21:01:08.664Z,97728.31
2022-09-27T21:03:35.841Z,97727.66
2022-09-27T21:06:04.609Z,97727.25
2022-09-27T21:08:33.247Z,97737.84
2022-09-27T21:11:04.187Z,97741.25
2022-09-27T21:13:31.810Z,97744.41
2022-09-27T21:16:02.797Z,97739.94
2022-09-27T21:18:30.078Z,97731.81
2022-09-27T21:21:01.132Z,97735.19
2022-09-27T21:23:29.819Z,97727.34
2022-09-27T21:26:00.771Z,97715.66
2022-09-27T21:28:41.086Z,97718.25
2022-09-27T21:31:09.078Z,97715.72
2022-09-27T21:33:36.844Z,97718.22
2022-09-27T21:36:04.938Z,97719.72
2022-09-27T21:38:32.242Z,97730.63
2022-09-27T21:41:04.908Z,97728.28
2022-09-27T21:43:32.568Z,97737.59
2022-09-27T21:46:03.893Z,97731.16
2022-09-27T21:48:31.202Z,97739.56
2022-09-27T21:51:02.145Z,97738.41
2022-09-27T21:53:29.550Z,97749.12
2022-09-27T21:55:56.672Z,97745.59
2022-09-27T21:58:23.912Z,97737.16
2022-09-27T22:00:51.378Z,97746.56
2022-09-27T22:03:20.336Z,97747.91
2022-09-27T22:05:48.230Z,97757.41
2022-09-27T22:08:16.103Z,97759.16
2022-09-27T22:10:44.045Z,97762.09
2022-09-27T22:13:11.623Z,97753.09
2022-09-27T22:15:38.977Z,97749.31
2022-09-27T22:18:06.588Z,97749.62
2022-09-27T22:20:33.754Z,97750.47
2022-09-27T22:23:00.898Z,97749.88
2022-09-27T22:25:28.687Z,97744.94
2022-09-27T22:27:55.816Z,97748.59
2022-09-27T22:30:22.944Z,97753.78
2022-09-27T22:32:50.374Z,97756.47
2022-09-27T22:35:17.517Z,97760.56
2022-09-27T22:37:44.879Z,97751.06
2022-09-27T22:40:12.450Z,97758.19
2022-09-27T22:42:39.604Z,97754.91
2022-09-27T22:45:07.201Z,97757.75
2022-09-27T22:47:34.618Z,97758.25
2022-09-27T22:50:02.232Z,97766.91
2022-09-27T22:52:29.399Z,97772.12
2022-09-27T22:54:56.892Z,97770.53
2022-09-27T22:57:25.980Z,97767.59
2022-09-27T22:59:53.342Z,97773.38
2022-09-27T23:02:20.767Z,97788.94
2022-09-27T23:04:49.006Z,97786.66
2022-09-27T23:07:16.145Z,97785.84
2022-09-27T23:09:43.563Z,97792.50
2022-09-27T23:12:10.757Z,97781.28
2022-09-27T23:14:42.440Z,97788.72
2022-09-27T23:17:10.396Z,97784.13
2022-09-27T23:19:38.064Z,97784.59
2022-09-27T23:22:05.183Z,97780.41
2022-09-27T23:24:32.593Z,97781.97
2022-09-27T23:27:18.452Z,97783.34
2022-09-27T23:29:46.063Z,97774.59
2022-09-27T23:32:13.210Z,97773.84
2022-09-27T23:34:41.228Z,97780.56
2022-09-27T23:37:08.619Z,97784.47
2022-09-27T23:39:35.755Z,97789.81
2022-09-27T23:42:03.289Z,97785.84
2022-09-27T23:44:31.372Z,97794.12
2022-09-27T23:47:00.534Z,97790.47
2022-09-27T23:49:27.904Z,97792.19
2022-09-27T23:51:55.778Z,97787.84
2022-09-27T23:54:22.981Z,97793.59
2022-09-27T23:56:50.093Z,97786.59
2022-09-27T23:59:17.562Z,97789.63
